createdAt,value
2018-10-21T00:01:52.563Z,10.71
2018-10-21T00:12:23.692Z,10.56
2018-10-21T00:17:16.402Z,10.48
2018-10-21T00:22:09.001Z,10.42
2018-10-21T00:27:01.638Z,10.35
2018-10-21T00:31:54.255Z,10.31
2018-10-21T00:36:46.863Z,10.25
2018-10-21T00:41:39.582Z,10.19
2018-10-21T00:46:32.270Z,10.16
2018-10-21T00:51:25.066Z,10.11
2018-10-21T00:56:18.557Z,10.09
2018-10-21T01:01:11.426Z,10.01
2018-10-21T01:06:04.204Z,9.99
2018-10-21T01:10:57.073Z,9.95
2018-10-21T01:15:49.692Z,9.88
2018-10-21T01:20:42.283Z,9.85
2018-10-21T01:25:34.921Z,9.85
2018-10-21T01:30:27.509Z,9.80
2018-10-21T01:35:20.161Z,9.75
2018-10-21T01:41:02.357Z,9.69
2018-10-21T01:45:55.486Z,9.70
2018-10-21T01:50:48.077Z,9.67
2018-10-21T01:55:40.724Z,9.62
2018-10-21T02:00:33.691Z,9.59
2018-10-21T02:05:26.583Z,9.46
2018-10-21T02:10:19.174Z,9.35
2018-10-21T02:15:12.529Z,9.28
2018-10-21T02:20:05.709Z,9.24
2018-10-21T02:24:58.338Z,9.15
2018-10-21T02:29:50.962Z,9.07
2018-10-21T02:34:43.530Z,8.98
2018-10-21T02:39:36.110Z,8.96
2018-10-21T02:44:28.680Z,8.90
2018-10-21T02:49:21.662Z,8.87
2018-10-21T02:54:14.283Z,8.82
2018-10-21T02:59:07.008Z,8.79
2018-10-21T03:03:59.652Z,8.77
2018-10-21T03:08:52.309Z,8.70
2018-10-21T03:13:44.931Z,8.66
2018-10-21T03:18:37.586Z,8.57
2018-10-21T03:23:30.227Z,8.53
2018-10-21T03:28:22.866Z,8.47
2018-10-21T03:33:15.740Z,8.37
2018-10-21T03:38:08.435Z,8.31
2018-10-21T03:43:01.086Z,8.24
2018-10-21T03:47:54.088Z,8.20
2018-10-21T03:52:46.848Z,8.15
2018-10-21T03:57:39.517Z,8.12
2018-10-21T04:02:32.114Z,8.12
2018-10-21T04:07:24.715Z,8.11
2018-10-21T04:12:17.289Z,8.07
2018-10-21T04:17:09.919Z,8.09
2018-10-21T04:22:02.596Z,8.03
2018-10-21T04:26:55.148Z,7.98
2018-10-21T04:31:47.779Z,8.00
2018-10-21T04:36:40.460Z,7.98
2018-10-21T04:41:33.067Z,7.95
2018-10-21T04:46:25.721Z,7.88
2018-10-21T04:51:18.329Z,7.84
2018-10-21T04:56:10.895Z,7.82
2018-10-21T05:01:03.678Z,7.78
2018-10-21T05:05:56.291Z,7.74
2018-10-21T05:10:48.897Z,7.68
2018-10-21T05:15:41.513Z,7.64
2018-10-21T05:20:34.148Z,7.56
2018-10-21T05:25:26.793Z,7.50
2018-10-21T05:30:19.392Z,7.44
2018-10-21T05:35:13.392Z,7.41
2018-10-21T05:40:08.240Z,7.38
2018-10-21T05:45:00.904Z,7.34
2018-10-21T05:49:53.522Z,7.32
2018-10-21T05:54:46.106Z,7.30
2018-10-21T05:59:38.710Z,7.29
2018-10-21T06:04:31.322Z,7.26
2018-10-21T06:09:24.002Z,7.24
2018-10-21T06:14:16.609Z,7.25
2018-10-21T06:19:12.889Z,7.25
2018-10-21T06:24:05.516Z,7.27
2018-10-21T06:28:58.227Z,7.32
2018-10-21T06:33:50.863Z,7.38
2018-10-21T06:38:43.597Z,7.46
2018-10-21T06:43:36.382Z,7.52
2018-10-21T06:48:29.050Z,7.61
2018-10-21T06:53:21.722Z,7.77
2018-10-21T06:58:14.368Z,7.87
2018-10-21T07:03:07.084Z,7.93
2018-10-21T07:07:59.768Z,7.99
2018-10-21T07:12:52.398Z,8.06
2018-10-21T07:17:46.536Z,8.21
2018-10-21T07:22:39.678Z,8.36
2018-10-21T07:27:32.260Z,8.50
2018-10-21T07:32:24.871Z,8.59
2018-10-21T07:37:17.618Z,8.69
2018-10-21T07:42:10.318Z,8.76
2018-10-21T07:47:02.985Z,8.87
2018-10-21T07:51:55.604Z,9.00
2018-10-21T07:56:48.354Z,9.10
2018-10-21T08:01:40.997Z,9.23
2018-10-21T08:06:51.213Z,9.39
2018-10-21T08:11:43.915Z,9.68
2018-10-21T08:16:36.681Z,9.95
2018-10-21T08:21:29.320Z,10.18
2018-10-21T08:26:21.926Z,10.47
2018-10-21T08:31:14.642Z,10.77
2018-10-21T08:36:11.650Z,11.02
2018-10-21T08:41:07.152Z,11.26
2018-10-21T08:46:03.463Z,11.54
2018-10-21T08:51:00.884Z,11.80
2018-10-21T08:55:55.629Z,12.08
2018-10-21T09:00:53.352Z,12.45
2018-10-21T09:05:53.691Z,12.75
2018-10-21T09:10:46.423Z,13.00
2018-10-21T09:15:39.192Z,13.32
2018-10-21T09:20:32.046Z,13.60
2018-10-21T09:25:24.896Z,13.91
2018-10-21T09:30:17.704Z,14.17
2018-10-21T09:35:14.228Z,14.31
2018-10-21T09:40:10.614Z,14.50
2018-10-21T09:45:03.900Z,14.61
2018-10-21T09:49:58.827Z,14.94
2018-10-21T09:54:51.711Z,15.24
2018-10-21T09:59:44.542Z,15.36
2018-10-21T10:04:37.446Z,15.65
2018-10-21T10:09:30.434Z,15.91
2018-10-21T10:14:23.338Z,16.21
2018-10-21T10:19:16.697Z,16.50
2018-10-21T10:24:09.628Z,16.72
2018-10-21T10:29:02.399Z,16.92
2018-10-21T10:33:55.467Z,16.94
2018-10-21T10:38:48.318Z,17.13
2018-10-21T10:43:41.245Z,17.29
2018-10-21T10:48:34.396Z,17.36
2018-10-21T10:53:27.798Z,17.56
2018-10-21T10:58:20.816Z,17.58
2018-10-21T11:03:13.887Z,17.33
2018-10-21T11:08:06.737Z,17.46
2018-10-21T11:12:59.812Z,17.62
2018-10-21T11:17:52.870Z,17.62
2018-10-21T11:22:45.837Z,17.63
2018-10-21T11:27:38.859Z,17.86
2018-10-21T11:32:31.923Z,18.18
2018-10-21T11:37:24.903Z,18.47
2018-10-21T11:42:17.728Z,18.55
2018-10-21T11:47:10.773Z,18.55
2018-10-21T11:52:03.797Z,18.34
2018-10-21T11:56:56.928Z,18.53
2018-10-21T12:01:49.900Z,18.77
2018-10-21T12:06:43.042Z,18.95
2018-10-21T12:11:35.845Z,19.05
2018-10-21T12:16:28.599Z,19.19
2018-10-21T12:21:21.467Z,19.42
2018-10-21T12:26:14.462Z,19.69
2018-10-21T12:31:07.425Z,19.85
2018-10-21T12:36:00.177Z,19.97
2018-10-21T12:40:53.098Z,19.89
2018-10-21T12:45:48.914Z,19.81
2018-10-21T12:50:42.788Z,19.85
2018-10-21T12:55:41.518Z,20.07
2018-10-21T13:00:34.410Z,20.15
2018-10-21T13:05:27.318Z,20.32
2018-10-21T13:10:20.183Z,20.56
2018-10-21T13:15:13.084Z,21.14
2018-10-21T13:20:06.118Z,21.34
2018-10-21T13:24:59.080Z,20.99
2018-10-21T13:29:51.982Z,21.01
2018-10-21T13:34:45.782Z,21.26
2018-10-21T13:39:38.666Z,21.13
2018-10-21T13:44:31.463Z,21.12
2018-10-21T13:49:24.276Z,20.94
2018-10-21T13:54:17.055Z,20.83
2018-10-21T13:59:09.952Z,20.81
2018-10-21T14:04:02.770Z,20.92
2018-10-21T14:08:55.590Z,21.26
2018-10-21T14:13:48.276Z,21.05
2018-10-21T14:18:40.892Z,20.78
2018-10-21T14:23:33.560Z,20.54
2018-10-21T14:28:26.185Z,20.51
2018-10-21T14:33:19.010Z,20.41
2018-10-21T14:38:11.505Z,20.38
2018-10-21T14:43:04.010Z,20.10
2018-10-21T14:47:56.798Z,19.81
2018-10-21T14:52:49.459Z,19.75
2018-10-21T14:57:41.987Z,19.65
2018-10-21T15:02:34.542Z,19.50
2018-10-21T15:07:27.226Z,19.31
2018-10-21T15:12:19.887Z,19.17
2018-10-21T15:17:12.548Z,19.04
2018-10-21T15:22:05.745Z,18.87
2018-10-21T15:26:58.573Z,18.75
2018-10-21T15:31:51.369Z,18.64
2018-10-21T15:36:44.069Z,18.55
2018-10-21T15:41:36.690Z,18.43
2018-10-21T15:46:29.252Z,18.30
2018-10-21T15:51:21.898Z,18.22
2018-10-21T15:56:14.787Z,18.08
2018-10-21T16:01:07.294Z,17.92
2018-10-21T16:06:00.606Z,17.68
2018-10-21T16:10:53.394Z,17.48
2018-10-21T16:15:46.176Z,17.29
2018-10-21T16:20:38.907Z,17.06
2018-10-21T16:25:31.703Z,16.87
2018-10-21T16:30:24.234Z,16.70
2018-10-21T16:35:16.949Z,16.51
2018-10-21T16:40:12.243Z,16.34
2018-10-21T16:45:05.522Z,16.13
2018-10-21T16:49:58.372Z,16.03
2018-10-21T16:54:51.165Z,15.89
2018-10-21T16:59:43.981Z,15.80
2018-10-21T17:04:36.511Z,15.67
2018-10-21T17:09:29.295Z,15.53
2018-10-21T17:14:21.858Z,15.42
2018-10-21T17:19:14.574Z,15.33
2018-10-21T17:24:07.199Z,15.20
2018-10-21T17:28:59.801Z,15.06
2018-10-21T17:33:52.463Z,14.95
2018-10-21T17:38:45.088Z,14.85
2018-10-21T17:43:38.985Z,14.71
2018-10-21T17:48:31.616Z,14.60
2018-10-21T17:53:24.455Z,14.52
2018-10-21T17:58:18.650Z,14.43
2018-10-21T18:03:13.882Z,14.36
2018-10-21T18:08:07.108Z,14.23
2018-10-21T18:13:00.433Z,14.13
2018-10-21T18:17:53.158Z,14.06
2018-10-21T18:22:45.946Z,13.96
2018-10-21T18:27:38.995Z,13.88
2018-10-21T18:32:31.583Z,13.79
2018-10-21T18:37:24.168Z,13.75
2018-10-21T18:42:16.774Z,13.79
2018-10-21T18:47:09.366Z,13.77
2018-10-21T18:52:02.068Z,13.75
2018-10-21T18:56:54.665Z,13.75
2018-10-21T19:01:47.338Z,13.77
2018-10-21T19:06:39.976Z,13.77
2018-10-21T19:11:32.640Z,13.81
2018-10-21T19:16:25.281Z,13.76
2018-10-21T19:21:17.839Z,13.72
2018-10-21T19:26:10.420Z,13.71
2018-10-21T19:31:03.018Z,13.66
2018-10-21T19:35:55.599Z,13.59
2018-10-21T19:40:48.375Z,13.52
2018-10-21T19:45:40.957Z,13.51
2018-10-21T19:50:33.555Z,13.42
2018-10-21T19:55:26.702Z,13.37
2018-10-21T20:00:19.440Z,13.28
2018-10-21T20:05:12.127Z,13.18
2018-10-21T20:10:07.236Z,13.12
2018-10-21T20:14:59.817Z,13.04
2018-10-21T20:19:52.409Z,12.94
2018-10-21T20:24:45.134Z,12.88
2018-10-21T20:29:37.800Z,12.79
2018-10-21T20:34:30.414Z,12.77
2018-10-21T20:39:22.934Z,12.73
2018-10-21T20:44:15.579Z,12.69
2018-10-21T20:49:08.277Z,12.66
2018-10-21T20:54:00.928Z,12.60
2018-10-21T20:58:53.522Z,12.55
2018-10-21T21:03:46.157Z,12.55
2018-10-21T21:08:39.175Z,12.48
2018-10-21T21:13:31.737Z,12.39
2018-10-21T21:18:24.366Z,12.35
2018-10-21T21:23:16.975Z,12.36
2018-10-21T21:28:09.720Z,12.32
2018-10-21T21:33:02.461Z,12.27
2018-10-21T21:37:55.126Z,12.20
2018-10-21T21:42:47.765Z,12.08
2018-10-21T21:47:40.357Z,12.03
2018-10-21T21:52:32.983Z,12.04
2018-10-21T21:57:25.681Z,12.01
2018-10-21T22:02:18.255Z,12.01
2018-10-21T22:07:10.913Z,11.99
2018-10-21T22:12:03.556Z,11.92
2018-10-21T22:16:56.173Z,11.86
2018-10-21T22:21:48.791Z,11.88
2018-10-21T22:26:41.353Z,11.89
2018-10-21T22:31:33.973Z,11.81
2018-10-21T22:36:26.733Z,11.78
2018-10-21T22:41:19.341Z,11.76
2018-10-21T22:46:12.146Z,11.72
2018-10-21T22:51:05.566Z,11.71
2018-10-21T22:55:58.093Z,11.77
2018-10-21T23:00:50.752Z,11.76
2018-10-21T23:05:43.365Z,11.71
2018-10-21T23:10:36.038Z,11.61
2018-10-21T23:15:28.666Z,11.54
2018-10-21T23:20:21.238Z,11.47
2018-10-21T23:25:13.739Z,11.40
2018-10-21T23:30:07.441Z,11.32
2018-10-21T23:35:00.106Z,11.29
2018-10-21T23:39:52.793Z,11.32
2018-10-21T23:44:45.529Z,11.31
2018-10-21T23:49:38.137Z,11.31
2018-10-21T23:54:31.607Z,11.32
2018-10-21T23:59:24.823Z,11.34
